sensor_id;sensor_type;location;lat;lon;timestamp;P1;durP1;ratioP1;P2;durP2;ratioP2
13321;SDS011;6730;46.248;6.930;2023-07-28T00:01:32;2.10;;;1.90;;
13321;SDS011;6730;46.248;6.930;2023-07-28T00:03:58;2.28;;;1.80;;
13321;SDS011;6730;46.248;6.930;2023-07-28T00:06:23;2.92;;;2.00;;
13321;SDS011;6730;46.248;6.930;2023-07-28T00:08:49;2.10;;;1.90;;
13321;SDS011;6730;46.248;6.930;2023-07-28T00:11:15;3.17;;;1.80;;
13321;SDS011;6730;46.248;6.930;2023-07-28T00:13:42;2.90;;;2.08;;
13321;SDS011;6730;46.248;6.930;2023-07-28T00:16:08;2.65;;;1.92;;
13321;SDS011;6730;46.248;6.930;2023-07-28T00:18:35;2.30;;;1.85;;
13321;SDS011;6730;46.248;6.930;2023-07-28T00:21:01;2.10;;;1.90;;
13321;SDS011;6730;46.248;6.930;2023-07-28T00:23:27;2.65;;;2.15;;
13321;SDS011;6730;46.248;6.930;2023-07-28T00:25:53;2.50;;;1.92;;
13321;SDS011;6730;46.248;6.930;2023-07-28T00:28:19;2.35;;;1.77;;
13321;SDS011;6730;46.248;6.930;2023-07-28T00:30:48;3.30;;;2.10;;
13321;SDS011;6730;46.248;6.930;2023-07-28T00:33:15;2.33;;;2.13;;
13321;SDS011;6730;46.248;6.930;2023-07-28T00:35:41;2.45;;;1.88;;
13321;SDS011;6730;46.248;6.930;2023-07-28T00:38:06;2.17;;;1.95;;
13321;SDS011;6730;46.248;6.930;2023-07-28T00:40:32;2.40;;;2.00;;
13321;SDS011;6730;46.248;6.930;2023-07-28T00:42:58;2.47;;;2.13;;
13321;SDS011;6730;46.248;6.930;2023-07-28T00:45:23;2.22;;;1.80;;
13321;SDS011;6730;46.248;6.930;2023-07-28T00:47:49;2.38;;;2.15;;
13321;SDS011;6730;46.248;6.930;2023-07-28T00:50:15;1.90;;;1.80;;
13321;SDS011;6730;46.248;6.930;2023-07-28T00:52:40;2.83;;;1.73;;
13321;SDS011;6730;46.248;6.930;2023-07-28T00:55:07;3.63;;;1.98;;
13321;SDS011;6730;46.248;6.930;2023-07-28T00:57:33;3.25;;;2.30;;
13321;SDS011;6730;46.248;6.930;2023-07-28T00:59:59;3.08;;;2.15;;
13321;SDS011;6730;46.248;6.930;2023-07-28T01:02:26;3.42;;;1.80;;
13321;SDS011;6730;46.248;6.930;2023-07-28T01:04:52;2.92;;;1.95;;
13321;SDS011;6730;46.248;6.930;2023-07-28T01:07:23;2.15;;;1.90;;
13321;SDS011;6730;46.248;6.930;2023-07-28T01:10:19;2.20;;;2.00;;
13321;SDS011;6730;46.248;6.930;2023-07-28T01:12:49;2.00;;;1.70;;
13321;SDS011;6730;46.248;6.930;2023-07-28T01:15:15;2.35;;;2.15;;
13321;SDS011;6730;46.248;6.930;2023-07-28T01:17:41;2.42;;;1.80;;
13321;SDS011;6730;46.248;6.930;2023-07-28T01:20:07;2.05;;;1.77;;
13321;SDS011;6730;46.248;6.930;2023-07-28T01:28:13;2.38;;;2.03;;
13321;SDS011;6730;46.248;6.930;2023-07-28T01:30:42;2.33;;;1.95;;
13321;SDS011;6730;46.248;6.930;2023-07-28T01:33:07;2.13;;;1.80;;
13321;SDS011;6730;46.248;6.930;2023-07-28T01:35:34;2.30;;;2.10;;
13321;SDS011;6730;46.248;6.930;2023-07-28T01:38:05;2.50;;;2.10;;
13321;SDS011;6730;46.248;6.930;2023-07-28T01:40:31;2.90;;;2.20;;
13321;SDS011;6730;46.248;6.930;2023-07-28T01:42:57;2.63;;;1.77;;
13321;SDS011;6730;46.248;6.930;2023-07-28T01:45:24;2.95;;;2.13;;
13321;SDS011;6730;46.248;6.930;2023-07-28T01:47:49;2.63;;;1.90;;
13321;SDS011;6730;46.248;6.930;2023-07-28T01:50:15;2.75;;;2.10;;
13321;SDS011;6730;46.248;6.930;2023-07-28T01:52:41;3.65;;;1.85;;
13321;SDS011;6730;46.248;6.930;2023-07-28T01:55:06;2.75;;;2.03;;
13321;SDS011;6730;46.248;6.930;2023-07-28T01:57:33;1.98;;;1.75;;
13321;SDS011;6730;46.248;6.930;2023-07-28T01:59:59;2.88;;;2.00;;
13321;SDS011;6730;46.248;6.930;2023-07-28T02:02:25;2.67;;;1.90;;
13321;SDS011;6730;46.248;6.930;2023-07-28T02:04:50;3.00;;;2.10;;
13321;SDS011;6730;46.248;6.930;2023-07-28T02:07:16;4.65;;;2.00;;
13321;SDS011;6730;46.248;6.930;2023-07-28T02:09:42;2.58;;;2.13;;
13321;SDS011;6730;46.248;6.930;2023-07-28T02:12:07;2.28;;;2.08;;
13321;SDS011;6730;46.248;6.930;2023-07-28T02:14:33;2.28;;;2.08;;
13321;SDS011;6730;46.248;6.930;2023-07-28T02:16:59;2.60;;;2.03;;
13321;SDS011;6730;46.248;6.930;2023-07-28T02:19:24;2.42;;;1.75;;
13321;SDS011;6730;46.248;6.930;2023-07-28T02:21:50;5.90;;;2.40;;
13321;SDS011;6730;46.248;6.930;2023-07-28T02:24:16;2.20;;;2.00;;
13321;SDS011;6730;46.248;6.930;2023-07-28T02:26:44;3.33;;;2.35;;
13321;SDS011;6730;46.248;6.930;2023-07-28T02:29:10;2.30;;;1.98;;
13321;SDS011;6730;46.248;6.930;2023-07-28T02:31:36;2.33;;;2.13;;
13321;SDS011;6730;46.248;6.930;2023-07-28T02:34:01;2.50;;;2.30;;
13321;SDS011;6730;46.248;6.930;2023-07-28T02:36:27;2.38;;;1.88;;
13321;SDS011;6730;46.248;6.930;2023-07-28T02:38:53;2.90;;;2.22;;
13321;SDS011;6730;46.248;6.930;2023-07-28T02:41:18;3.90;;;2.33;;
13321;SDS011;6730;46.248;6.930;2023-07-28T02:43:44;2.25;;;2.00;;
13321;SDS011;6730;46.248;6.930;2023-07-28T02:46:09;2.45;;;1.90;;
13321;SDS011;6730;46.248;6.930;2023-07-28T02:48:35;2.92;;;2.17;;
13321;SDS011;6730;46.248;6.930;2023-07-28T02:51:01;2.05;;;1.85;;
13321;SDS011;6730;46.248;6.930;2023-07-28T02:53:27;2.63;;;2.00;;
13321;SDS011;6730;46.248;6.930;2023-07-28T02:55:52;2.58;;;2.17;;
13321;SDS011;6730;46.248;6.930;2023-07-28T02:58:19;3.53;;;1.95;;
13321;SDS011;6730;46.248;6.930;2023-07-28T03:00:44;2.40;;;2.20;;
13321;SDS011;6730;46.248;6.930;2023-07-28T03:03:11;3.33;;;2.08;;
13321;SDS011;6730;46.248;6.930;2023-07-28T03:05:38;2.13;;;1.92;;
13321;SDS011;6730;46.248;6.930;2023-07-28T03:08:05;2.30;;;2.10;;
13321;SDS011;6730;46.248;6.930;2023-07-28T03:10:31;3.40;;;2.33;;
13321;SDS011;6730;46.248;6.930;2023-07-28T03:12:57;3.83;;;2.20;;
13321;SDS011;6730;46.248;6.930;2023-07-28T03:15:23;1.90;;;1.77;;
13321;SDS011;6730;46.248;6.930;2023-07-28T03:17:49;2.42;;;2.05;;
13321;SDS011;6730;46.248;6.930;2023-07-28T03:20:15;2.88;;;2.10;;
13321;SDS011;6730;46.248;6.930;2023-07-28T03:22:41;2.30;;;2.00;;
13321;SDS011;6730;46.248;6.930;2023-07-28T03:25:07;2.35;;;1.77;;
13321;SDS011;6730;46.248;6.930;2023-07-28T03:27:33;2.78;;;2.22;;
13321;SDS011;6730;46.248;6.930;2023-07-28T03:29:59;2.20;;;1.98;;
13321;SDS011;6730;46.248;6.930;2023-07-28T03:32:25;2.20;;;2.00;;
13321;SDS011;6730;46.248;6.930;2023-07-28T03:34:51;2.65;;;2.10;;
13321;SDS011;6730;46.248;6.930;2023-07-28T03:37:16;2.80;;;2.28;;
13321;SDS011;6730;46.248;6.930;2023-07-28T03:39:42;2.42;;;2.13;;
13321;SDS011;6730;46.248;6.930;2023-07-28T03:42:07;2.17;;;1.98;;
13321;SDS011;6730;46.248;6.930;2023-07-28T03:44:33;2.15;;;1.90;;
13321;SDS011;6730;46.248;6.930;2023-07-28T03:47:00;2.83;;;2.08;;
13321;SDS011;6730;46.248;6.930;2023-07-28T03:49:26;3.55;;;2.00;;
13321;SDS011;6730;46.248;6.930;2023-07-28T03:51:51;3.10;;;1.83;;
13321;SDS011;6730;46.248;6.930;2023-07-28T03:54:17;2.78;;;2.05;;
13321;SDS011;6730;46.248;6.930;2023-07-28T03:56:43;1.98;;;1.85;;
13321;SDS011;6730;46.248;6.930;2023-07-28T03:59:08;2.10;;;1.88;;
13321;SDS011;6730;46.248;6.930;2023-07-28T04:01:34;1.83;;;1.70;;
13321;SDS011;6730;46.248;6.930;2023-07-28T04:04:00;3.72;;;1.90;;
13321;SDS011;6730;46.248;6.930;2023-07-28T04:09:07;5.60;;;1.92;;
13321;SDS011;6730;46.248;6.930;2023-07-28T04:11:33;2.83;;;2.10;;
13321;SDS011;6730;46.248;6.930;2023-07-28T04:13:59;2.47;;;1.80;;
13321;SDS011;6730;46.248;6.930;2023-07-28T04:16:25;2.50;;;2.20;;
13321;SDS011;6730;46.248;6.930;2023-07-28T04:18:50;2.65;;;2.00;;
13321;SDS011;6730;46.248;6.930;2023-07-28T04:21:16;2.53;;;1.98;;
13321;SDS011;6730;46.248;6.930;2023-07-28T04:23:41;2.10;;;1.92;;
13321;SDS011;6730;46.248;6.930;2023-07-28T04:26:08;2.33;;;2.08;;
13321;SDS011;6730;46.248;6.930;2023-07-28T04:28:34;1.80;;;1.70;;
13321;SDS011;6730;46.248;6.930;2023-07-28T04:31:00;2.10;;;1.90;;
13321;SDS011;6730;46.248;6.930;2023-07-28T04:33:25;2.22;;;2.03;;
13321;SDS011;6730;46.248;6.930;2023-07-28T04:35:51;2.42;;;2.15;;
13321;SDS011;6730;46.248;6.930;2023-07-28T04:38:17;2.03;;;1.83;;
13321;SDS011;6730;46.248;6.930;2023-07-28T04:40:43;2.83;;;2.13;;
13321;SDS011;6730;46.248;6.930;2023-07-28T04:43:09;2.10;;;1.90;;
13321;SDS011;6730;46.248;6.930;2023-07-28T04:45:35;2.08;;;1.88;;
13321;SDS011;6730;46.248;6.930;2023-07-28T04:48:00;2.45;;;2.10;;
13321;SDS011;6730;46.248;6.930;2023-07-28T04:50:26;3.08;;;2.00;;
13321;SDS011;6730;46.248;6.930;2023-07-28T04:52:52;2.40;;;2.20;;
13321;SDS011;6730;46.248;6.930;2023-07-28T04:55:18;2.50;;;1.95;;
13321;SDS011;6730;46.248;6.930;2023-07-28T04:57:44;2.65;;;2.08;;
13321;SDS011;6730;46.248;6.930;2023-07-28T05:00:09;5.78;;;2.20;;
13321;SDS011;6730;46.248;6.930;2023-07-28T05:02:35;3.33;;;2.22;;
13321;SDS011;6730;46.248;6.930;2023-07-28T05:05:01;3.95;;;1.90;;
13321;SDS011;6730;46.248;6.930;2023-07-28T05:07:27;2.90;;;1.88;;
13321;SDS011;6730;46.248;6.930;2023-07-28T05:09:54;2.60;;;2.33;;
13321;SDS011;6730;46.248;6.930;2023-07-28T05:12:19;2.28;;;2.05;;
13321;SDS011;6730;46.248;6.930;2023-07-28T05:14:45;2.60;;;2.17;;
13321;SDS011;6730;46.248;6.930;2023-07-28T05:17:11;2.78;;;2.03;;
13321;SDS011;6730;46.248;6.930;2023-07-28T05:19:37;3.50;;;2.10;;
13321;SDS011;6730;46.248;6.930;2023-07-28T05:22:02;2.90;;;2.20;;
13321;SDS011;6730;46.248;6.930;2023-07-28T05:24:28;3.28;;;2.28;;
13321;SDS011;6730;46.248;6.930;2023-07-28T05:26:55;2.38;;;2.17;;
13321;SDS011;6730;46.248;6.930;2023-07-28T05:29:21;2.85;;;2.10;;
13321;SDS011;6730;46.248;6.930;2023-07-28T05:31:46;2.33;;;2.13;;
13321;SDS011;6730;46.248;6.930;2023-07-28T05:34:12;4.30;;;2.03;;
13321;SDS011;6730;46.248;6.930;2023-07-28T05:36:38;2.13;;;1.83;;
13321;SDS011;6730;46.248;6.930;2023-07-28T05:39:04;2.13;;;1.92;;
13321;SDS011;6730;46.248;6.930;2023-07-28T05:41:29;2.55;;;1.90;;
13321;SDS011;6730;46.248;6.930;2023-07-28T05:43:55;1.95;;;1.80;;
13321;SDS011;6730;46.248;6.930;2023-07-28T05:46:21;2.35;;;2.15;;
13321;SDS011;6730;46.248;6.930;2023-07-28T05:48:46;2.40;;;2.20;;
13321;SDS011;6730;46.248;6.930;2023-07-28T05:51:12;6.03;;;2.30;;
13321;SDS011;6730;46.248;6.930;2023-07-28T05:53:38;2.92;;;2.10;;
13321;SDS011;6730;46.248;6.930;2023-07-28T05:56:03;3.67;;;2.42;;
13321;SDS011;6730;46.248;6.930;2023-07-28T05:58:29;2.15;;;1.95;;
13321;SDS011;6730;46.248;6.930;2023-07-28T06:00:55;2.63;;;1.90;;
13321;SDS011;6730;46.248;6.930;2023-07-28T06:03:21;2.67;;;2.03;;
13321;SDS011;6730;46.248;6.930;2023-07-28T06:05:47;2.53;;;2.15;;
13321;SDS011;6730;46.248;6.930;2023-07-28T06:08:12;2.85;;;2.00;;
13321;SDS011;6730;46.248;6.930;2023-07-28T06:10:39;3.45;;;2.25;;
13321;SDS011;6730;46.248;6.930;2023-07-28T06:13:05;2.70;;;1.50;;
13321;SDS011;6730;46.248;6.930;2023-07-28T06:15:31;3.92;;;3.55;;
13321;SDS011;6730;46.248;6.930;2023-07-28T06:17:56;3.45;;;2.35;;
13321;SDS011;6730;46.248;6.930;2023-07-28T06:20:22;2.58;;;2.10;;
13321;SDS011;6730;46.248;6.930;2023-07-28T06:22:48;2.53;;;2.15;;
13321;SDS011;6730;46.248;6.930;2023-07-28T06:25:13;3.08;;;2.40;;
13321;SDS011;6730;46.248;6.930;2023-07-28T06:27:39;3.55;;;2.40;;
13321;SDS011;6730;46.248;6.930;2023-07-28T06:30:08;5.63;;;2.20;;
13321;SDS011;6730;46.248;6.930;2023-07-28T06:32:34;3.10;;;2.35;;
13321;SDS011;6730;46.248;6.930;2023-07-28T06:35:00;3.67;;;2.00;;
13321;SDS011;6730;46.248;6.930;2023-07-28T06:37:26;2.13;;;1.88;;
13321;SDS011;6730;46.248;6.930;2023-07-28T06:39:52;2.63;;;2.03;;
13321;SDS011;6730;46.248;6.930;2023-07-28T06:42:19;2.35;;;2.15;;
13321;SDS011;6730;46.248;6.930;2023-07-28T06:44:48;2.92;;;2.25;;
13321;SDS011;6730;46.248;6.930;2023-07-28T06:47:15;2.25;;;2.05;;
13321;SDS011;6730;46.248;6.930;2023-07-28T06:49:40;2.30;;;2.10;;
13321;SDS011;6730;46.248;6.930;2023-07-28T06:52:06;2.88;;;2.40;;
13321;SDS011;6730;46.248;6.930;2023-07-28T06:54:32;2.13;;;1.92;;
13321;SDS011;6730;46.248;6.930;2023-07-28T06:56:57;2.85;;;2.20;;
13321;SDS011;6730;46.248;6.930;2023-07-28T06:59:23;3.10;;;1.98;;
13321;SDS011;6730;46.248;6.930;2023-07-28T07:01:49;2.30;;;2.10;;
13321;SDS011;6730;46.248;6.930;2023-07-28T07:04:14;2.85;;;2.30;;
13321;SDS011;6730;46.248;6.930;2023-07-28T07:06:40;2.72;;;2.30;;
13321;SDS011;6730;46.248;6.930;2023-07-28T07:09:06;4.00;;;2.17;;
13321;SDS011;6730;46.248;6.930;2023-07-28T07:11:32;2.40;;;2.20;;
13321;SDS011;6730;46.248;6.930;2023-07-28T07:13:57;5.47;;;2.40;;
13321;SDS011;6730;46.248;6.930;2023-07-28T07:16:23;3.88;;;2.35;;
13321;SDS011;6730;46.248;6.930;2023-07-28T07:18:48;2.33;;;2.13;;
13321;SDS011;6730;46.248;6.930;2023-07-28T07:21:16;3.45;;;2.45;;
13321;SDS011;6730;46.248;6.930;2023-07-28T07:23:42;4.90;;;2.67;;
13321;SDS011;6730;46.248;6.930;2023-07-28T07:26:08;4.68;;;2.28;;
13321;SDS011;6730;46.248;6.930;2023-07-28T07:28:33;4.57;;;2.60;;
13321;SDS011;6730;46.248;6.930;2023-07-28T07:31:00;2.90;;;2.50;;
13321;SDS011;6730;46.248;6.930;2023-07-28T07:33:28;8.77;;;2.33;;
13321;SDS011;6730;46.248;6.930;2023-07-28T07:35:53;3.53;;;2.42;;
13321;SDS011;6730;46.248;6.930;2023-07-28T07:38:19;2.60;;;2.10;;
13321;SDS011;6730;46.248;6.930;2023-07-28T07:40:47;7.03;;;2.70;;
13321;SDS011;6730;46.248;6.930;2023-07-28T07:43:13;3.17;;;2.03;;
13321;SDS011;6730;46.248;6.930;2023-07-28T07:45:45;3.05;;;2.20;;
13321;SDS011;6730;46.248;6.930;2023-07-28T07:48:12;2.60;;;2.38;;
13321;SDS011;6730;46.248;6.930;2023-07-28T07:50:38;2.70;;;2.40;;
13321;SDS011;6730;46.248;6.930;2023-07-28T07:53:04;4.13;;;2.45;;
13321;SDS011;6730;46.248;6.930;2023-07-28T07:55:29;2.85;;;2.40;;
13321;SDS011;6730;46.248;6.930;2023-07-28T07:57:56;4.78;;;2.55;;
13321;SDS011;6730;46.248;6.930;2023-07-28T08:00:22;3.58;;;2.53;;
13321;SDS011;6730;46.248;6.930;2023-07-28T08:02:49;2.88;;;2.67;;
13321;SDS011;6730;46.248;6.930;2023-07-28T08:05:15;2.40;;;2.20;;
13321;SDS011;6730;46.248;6.930;2023-07-28T08:07:41;4.40;;;2.72;;
13321;SDS011;6730;46.248;6.930;2023-07-28T08:10:07;5.68;;;2.80;;
13321;SDS011;6730;46.248;6.930;2023-07-28T08:12:33;5.70;;;3.13;;
13321;SDS011;6730;46.248;6.930;2023-07-28T08:14:59;4.20;;;3.33;;
13321;SDS011;6730;46.248;6.930;2023-07-28T08:17:25;3.17;;;2.40;;
13321;SDS011;6730;46.248;6.930;2023-07-28T08:19:50;5.03;;;2.78;;
13321;SDS011;6730;46.248;6.930;2023-07-28T08:22:16;2.83;;;2.50;;
13321;SDS011;6730;46.248;6.930;2023-07-28T08:24:41;2.67;;;2.47;;
13321;SDS011;6730;46.248;6.930;2023-07-28T08:27:07;2.75;;;2.53;;
13321;SDS011;6730;46.248;6.930;2023-07-28T08:29:33;3.13;;;2.83;;
13321;SDS011;6730;46.248;6.930;2023-07-28T08:31:59;2.67;;;2.20;;
13321;SDS011;6730;46.248;6.930;2023-07-28T08:34:24;2.97;;;2.60;;
13321;SDS011;6730;46.248;6.930;2023-07-28T08:36:51;4.93;;;2.88;;
13321;SDS011;6730;46.248;6.930;2023-07-28T08:39:17;3.30;;;2.97;;
13321;SDS011;6730;46.248;6.930;2023-07-28T08:41:43;4.38;;;2.95;;
13321;SDS011;6730;46.248;6.930;2023-07-28T08:44:08;4.60;;;3.00;;
13321;SDS011;6730;46.248;6.930;2023-07-28T08:46:34;3.25;;;2.40;;
13321;SDS011;6730;46.248;6.930;2023-07-28T08:49:00;3.00;;;2.70;;
13321;SDS011;6730;46.248;6.930;2023-07-28T08:51:26;8.57;;;2.92;;
13321;SDS011;6730;46.248;6.930;2023-07-28T08:53:52;6.10;;;2.58;;
13321;SDS011;6730;46.248;6.930;2023-07-28T08:56:18;3.08;;;2.78;;
13321;SDS011;6730;46.248;6.930;2023-07-28T08:58:45;4.07;;;2.13;;
13321;SDS011;6730;46.248;6.930;2023-07-28T09:01:10;4.72;;;2.53;;
13321;SDS011;6730;46.248;6.930;2023-07-28T09:03:39;2.88;;;2.50;;
13321;SDS011;6730;46.248;6.930;2023-07-28T09:06:06;2.95;;;2.70;;
13321;SDS011;6730;46.248;6.930;2023-07-28T09:08:34;5.80;;;3.03;;
13321;SDS011;6730;46.248;6.930;2023-07-28T09:11:04;3.55;;;2.70;;
13321;SDS011;6730;46.248;6.930;2023-07-28T09:13:35;3.58;;;2.80;;
13321;SDS011;6730;46.248;6.930;2023-07-28T09:16:02;3.15;;;2.42;;
13321;SDS011;6730;46.248;6.930;2023-07-28T09:18:29;3.50;;;2.55;;
13321;SDS011;6730;46.248;6.930;2023-07-28T09:20:55;4.20;;;2.70;;
13321;SDS011;6730;46.248;6.930;2023-07-28T09:23:27;3.38;;;2.65;;
13321;SDS011;6730;46.248;6.930;2023-07-28T09:26:00;4.10;;;3.13;;
13321;SDS011;6730;46.248;6.930;2023-07-28T09:28:40;3.97;;;2.72;;
13321;SDS011;6730;46.248;6.930;2023-07-28T09:31:06;3.55;;;2.90;;
13321;SDS011;6730;46.248;6.930;2023-07-28T09:33:34;4.35;;;2.58;;
13321;SDS011;6730;46.248;6.930;2023-07-28T09:36:10;4.35;;;3.00;;
13321;SDS011;6730;46.248;6.930;2023-07-28T09:38:38;7.60;;;2.90;;
13321;SDS011;6730;46.248;6.930;2023-07-28T09:41:06;4.88;;;3.03;;
13321;SDS011;6730;46.248;6.930;2023-07-28T09:43:36;3.15;;;2.80;;
13321;SDS011;6730;46.248;6.930;2023-07-28T09:46:06;3.22;;;2.70;;
13321;SDS011;6730;46.248;6.930;2023-07-28T09:48:33;3.40;;;2.60;;
13321;SDS011;6730;46.248;6.930;2023-07-28T09:51:12;3.65;;;2.80;;
13321;SDS011;6730;46.248;6.930;2023-07-28T09:53:50;3.42;;;2.53;;
13321;SDS011;6730;46.248;6.930;2023-07-28T09:56:20;4.82;;;2.78;;
13321;SDS011;6730;46.248;6.930;2023-07-28T09:58:52;5.35;;;2.50;;
13321;SDS011;6730;46.248;6.930;2023-07-28T10:01:21;3.30;;;2.47;;
13321;SDS011;6730;46.248;6.930;2023-07-28T10:03:49;2.60;;;2.40;;
13321;SDS011;6730;46.248;6.930;2023-07-28T10:06:15;2.97;;;2.30;;
13321;SDS011;6730;46.248;6.930;2023-07-28T10:08:44;4.85;;;2.60;;
13321;SDS011;6730;46.248;6.930;2023-07-28T10:11:15;2.85;;;2.28;;
13321;SDS011;6730;46.248;6.930;2023-07-28T10:13:42;4.45;;;2.40;;
13321;SDS011;6730;46.248;6.930;2023-07-28T10:16:09;3.80;;;2.65;;
13321;SDS011;6730;46.248;6.930;2023-07-28T10:18:35;2.90;;;2.60;;
13321;SDS011;6730;46.248;6.930;2023-07-28T10:21:09;4.45;;;2.78;;
13321;SDS011;6730;46.248;6.930;2023-07-28T10:23:38;4.18;;;2.42;;
13321;SDS011;6730;46.248;6.930;2023-07-28T10:26:04;4.43;;;2.72;;
13321;SDS011;6730;46.248;6.930;2023-07-28T10:28:37;3.13;;;2.75;;
13321;SDS011;6730;46.248;6.930;2023-07-28T10:31:06;2.80;;;2.33;;
13321;SDS011;6730;46.248;6.930;2023-07-28T10:39:01;3.03;;;2.72;;
13321;SDS011;6730;46.248;6.930;2023-07-28T10:41:37;3.60;;;2.40;;
13321;SDS011;6730;46.248;6.930;2023-07-28T10:44:03;4.03;;;2.80;;
13321;SDS011;6730;46.248;6.930;2023-07-28T10:46:30;3.72;;;3.30;;
13321;SDS011;6730;46.248;6.930;2023-07-28T10:48:57;3.72;;;2.70;;
13321;SDS011;6730;46.248;6.930;2023-07-28T10:51:30;3.45;;;2.83;;
13321;SDS011;6730;46.248;6.930;2023-07-28T10:53:59;2.85;;;2.53;;
13321;SDS011;6730;46.248;6.930;2023-07-28T10:56:25;2.75;;;2.47;;
13321;SDS011;6730;46.248;6.930;2023-07-28T10:58:58;3.13;;;2.50;;
13321;SDS011;6730;46.248;6.930;2023-07-28T11:01:35;2.90;;;2.70;;
13321;SDS011;6730;46.248;6.930;2023-07-28T11:04:19;3.78;;;2.83;;
13321;SDS011;6730;46.248;6.930;2023-07-28T11:06:46;3.05;;;2.78;;
13321;SDS011;6730;46.248;6.930;2023-07-28T11:09:13;5.32;;;2.72;;
13321;SDS011;6730;46.248;6.930;2023-07-28T11:11:40;4.80;;;2.90;;
13321;SDS011;6730;46.248;6.930;2023-07-28T11:14:06;3.50;;;2.90;;
13321;SDS011;6730;46.248;6.930;2023-07-28T11:16:37;3.05;;;2.75;;
13321;SDS011;6730;46.248;6.930;2023-07-28T11:19:08;6.20;;;2.92;;
13321;SDS011;6730;46.248;6.930;2023-07-28T11:21:43;2.90;;;2.58;;
13321;SDS011;6730;46.248;6.930;2023-07-28T11:24:09;3.55;;;2.70;;
13321;SDS011;6730;46.248;6.930;2023-07-28T11:26:39;4.50;;;3.10;;
13321;SDS011;6730;46.248;6.930;2023-07-28T11:29:05;4.55;;;2.95;;
13321;SDS011;6730;46.248;6.930;2023-07-28T11:31:31;3.60;;;2.92;;
13321;SDS011;6730;46.248;6.930;2023-07-28T11:33:58;3.47;;;2.90;;
13321;SDS011;6730;46.248;6.930;2023-07-28T11:36:24;3.45;;;3.15;;
13321;SDS011;6730;46.248;6.930;2023-07-28T11:38:51;3.42;;;2.90;;
13321;SDS011;6730;46.248;6.930;2023-07-28T11:41:18;3.45;;;3.15;;
13321;SDS011;6730;46.248;6.930;2023-07-28T11:43:46;3.08;;;2.78;;
13321;SDS011;6730;46.248;6.930;2023-07-28T11:46:32;4.40;;;2.70;;
13321;SDS011;6730;46.248;6.930;2023-07-28T11:49:11;3.92;;;3.10;;
13321;SDS011;6730;46.248;6.930;2023-07-28T11:51:40;4.00;;;2.88;;
13321;SDS011;6730;46.248;6.930;2023-07-28T11:54:12;3.85;;;2.78;;
13321;SDS011;6730;46.248;6.930;2023-07-28T11:56:39;3.40;;;2.80;;
13321;SDS011;6730;46.248;6.930;2023-07-28T11:59:06;3.10;;;2.90;;
13321;SDS011;6730;46.248;6.930;2023-07-28T12:01:32;3.00;;;2.70;;
13321;SDS011;6730;46.248;6.930;2023-07-28T12:03:58;5.05;;;2.92;;
13321;SDS011;6730;46.248;6.930;2023-07-28T12:06:25;2.75;;;2.50;;
13321;SDS011;6730;46.248;6.930;2023-07-28T12:08:51;3.88;;;3.10;;
13321;SDS011;6730;46.248;6.930;2023-07-28T12:11:17;3.55;;;2.97;;
13321;SDS011;6730;46.248;6.930;2023-07-28T12:13:51;5.68;;;2.83;;
13321;SDS011;6730;46.248;6.930;2023-07-28T12:19:06;3.60;;;2.90;;
13321;SDS011;6730;46.248;6.930;2023-07-28T12:21:33;4.43;;;3.33;;
13321;SDS011;6730;46.248;6.930;2023-07-28T12:23:58;3.60;;;3.08;;
13321;SDS011;6730;46.248;6.930;2023-07-28T12:26:24;3.30;;;2.90;;
13321;SDS011;6730;46.248;6.930;2023-07-28T12:28:49;2.95;;;2.75;;
13321;SDS011;6730;46.248;6.930;2023-07-28T12:31:15;4.05;;;2.90;;
13321;SDS011;6730;46.248;6.930;2023-07-28T12:33:41;3.83;;;2.85;;
13321;SDS011;6730;46.248;6.930;2023-07-28T12:36:06;3.92;;;2.72;;
13321;SDS011;6730;46.248;6.930;2023-07-28T12:38:32;5.22;;;2.92;;
13321;SDS011;6730;46.248;6.930;2023-07-28T12:40:57;4.85;;;3.75;;
13321;SDS011;6730;46.248;6.930;2023-07-28T12:43:23;2.92;;;2.50;;
13321;SDS011;6730;46.248;6.930;2023-07-28T12:45:50;3.33;;;2.80;;
13321;SDS011;6730;46.248;6.930;2023-07-28T12:48:17;3.92;;;3.08;;
13321;SDS011;6730;46.248;6.930;2023-07-28T12:50:44;4.50;;;2.80;;
13321;SDS011;6730;46.248;6.930;2023-07-28T12:53:09;3.58;;;3.28;;
13321;SDS011;6730;46.248;6.930;2023-07-28T12:55:35;3.30;;;2.97;;
13321;SDS011;6730;46.248;6.930;2023-07-28T12:58:02;4.25;;;3.00;;
13321;SDS011;6730;46.248;6.930;2023-07-28T13:00:28;3.40;;;3.10;;
13321;SDS011;6730;46.248;6.930;2023-07-28T13:02:53;3.20;;;2.90;;
13321;SDS011;6730;46.248;6.930;2023-07-28T13:05:19;3.47;;;3.08;;
13321;SDS011;6730;46.248;6.930;2023-07-28T13:07:45;4.68;;;2.90;;
13321;SDS011;6730;46.248;6.930;2023-07-28T13:10:10;3.72;;;3.10;;
13321;SDS011;6730;46.248;6.930;2023-07-28T13:12:37;3.22;;;2.92;;
13321;SDS011;6730;46.248;6.930;2023-07-28T13:15:03;3.67;;;3.10;;
13321;SDS011;6730;46.248;6.930;2023-07-28T13:17:29;3.10;;;2.80;;
13321;SDS011;6730;46.248;6.930;2023-07-28T13:19:55;3.25;;;2.92;;
13321;SDS011;6730;46.248;6.930;2023-07-28T13:22:22;4.32;;;2.90;;
13321;SDS011;6730;46.248;6.930;2023-07-28T13:24:48;3.70;;;3.10;;
13321;SDS011;6730;46.248;6.930;2023-07-28T13:27:14;3.25;;;2.95;;
13321;SDS011;6730;46.248;6.930;2023-07-28T13:29:40;4.18;;;3.25;;
13321;SDS011;6730;46.248;6.930;2023-07-28T13:32:15;4.90;;;2.97;;
13321;SDS011;6730;46.248;6.930;2023-07-28T13:34:42;3.28;;;2.95;;
13321;SDS011;6730;46.248;6.930;2023-07-28T13:37:07;3.72;;;2.80;;
13321;SDS011;6730;46.248;6.930;2023-07-28T13:39:33;2.83;;;2.60;;
13321;SDS011;6730;46.248;6.930;2023-07-28T13:41:58;9.82;;;7.82;;
13321;SDS011;6730;46.248;6.930;2023-07-28T13:44:24;3.22;;;2.92;;
13321;SDS011;6730;46.248;6.930;2023-07-28T13:46:50;3.25;;;3.00;;
13321;SDS011;6730;46.248;6.930;2023-07-28T13:49:15;5.80;;;3.08;;
13321;SDS011;6730;46.248;6.930;2023-07-28T13:51:41;3.97;;;3.10;;
13321;SDS011;6730;46.248;6.930;2023-07-28T13:54:06;3.33;;;3.03;;
13321;SDS011;6730;46.248;6.930;2023-07-28T13:56:32;3.97;;;2.92;;
13321;SDS011;6730;46.248;6.930;2023-07-28T13:58:58;3.75;;;3.33;;
13321;SDS011;6730;46.248;6.930;2023-07-28T14:01:24;4.85;;;3.22;;
13321;SDS011;6730;46.248;6.930;2023-07-28T14:03:50;4.35;;;3.35;;
13321;SDS011;6730;46.248;6.930;2023-07-28T14:06:15;3.45;;;2.83;;
13321;SDS011;6730;46.248;6.930;2023-07-28T14:08:41;5.20;;;3.13;;
13321;SDS011;6730;46.248;6.930;2023-07-28T14:11:06;4.03;;;3.38;;
13321;SDS011;6730;46.248;6.930;2023-07-28T14:13:32;4.45;;;2.97;;
13321;SDS011;6730;46.248;6.930;2023-07-28T14:15:58;4.95;;;3.45;;
13321;SDS011;6730;46.248;6.930;2023-07-28T14:18:24;3.47;;;3.17;;
13321;SDS011;6730;46.248;6.930;2023-07-28T14:20:49;3.72;;;3.30;;
13321;SDS011;6730;46.248;6.930;2023-07-28T14:25:48;5.10;;;3.60;;
13321;SDS011;6730;46.248;6.930;2023-07-28T14:28:14;3.58;;;3.22;;
13321;SDS011;6730;46.248;6.930;2023-07-28T14:30:40;4.03;;;3.13;;
13321;SDS011;6730;46.248;6.930;2023-07-28T14:33:11;4.45;;;3.42;;
13321;SDS011;6730;46.248;6.930;2023-07-28T14:35:40;6.68;;;3.42;;
13321;SDS011;6730;46.248;6.930;2023-07-28T14:38:06;3.40;;;2.97;;
13321;SDS011;6730;46.248;6.930;2023-07-28T14:40:33;3.13;;;2.83;;
13321;SDS011;6730;46.248;6.930;2023-07-28T14:42:58;3.45;;;3.08;;
13321;SDS011;6730;46.248;6.930;2023-07-28T14:45:24;5.28;;;3.28;;
13321;SDS011;6730;46.248;6.930;2023-07-28T14:47:49;5.20;;;3.20;;
13321;SDS011;6730;46.248;6.930;2023-07-28T14:50:15;3.65;;;2.75;;
13321;SDS011;6730;46.248;6.930;2023-07-28T14:52:41;3.55;;;2.90;;
13321;SDS011;6730;46.248;6.930;2023-07-28T14:55:06;4.47;;;3.33;;
13321;SDS011;6730;46.248;6.930;2023-07-28T14:57:32;3.47;;;3.17;;
13321;SDS011;6730;46.248;6.930;2023-07-28T14:59:58;3.63;;;3.20;;
13321;SDS011;6730;46.248;6.930;2023-07-28T15:02:23;4.97;;;3.47;;
13321;SDS011;6730;46.248;6.930;2023-07-28T15:04:49;3.70;;;3.33;;
13321;SDS011;6730;46.248;6.930;2023-07-28T15:07:16;3.67;;;3.35;;
13321;SDS011;6730;46.248;6.930;2023-07-28T15:09:44;5.30;;;3.58;;
13321;SDS011;6730;46.248;6.930;2023-07-28T15:12:09;3.40;;;3.10;;
13321;SDS011;6730;46.248;6.930;2023-07-28T15:14:35;5.20;;;3.70;;
13321;SDS011;6730;46.248;6.930;2023-07-28T15:17:01;6.45;;;3.30;;